sensor_id;sensor_type;location;lat;lon;timestamp;temperature;humidity
12604;DHT22;6367;52.508;13.284;2023-03-01T00:00:40;6.20;79.50
12604;DHT22;6367;52.508;13.284;2023-03-01T00:03:06;6.00;79.50
12604;DHT22;6367;52.508;13.284;2023-03-01T00:05:31;6.00;79.70
12604;DHT22;6367;52.508;13.284;2023-03-01T00:07:57;6.00;79.90
12604;DHT22;6367;52.508;13.284;2023-03-01T00:10:23;6.00;79.90
12604;DHT22;6367;52.508;13.284;2023-03-01T00:12:49;6.10;80.10
12604;DHT22;6367;52.508;13.284;2023-03-01T00:15:15;6.60;80.80
12604;DHT22;6367;52.508;13.284;2023-03-01T00:17:40;6.00;80.30
12604;DHT22;6367;52.508;13.284;2023-03-01T00:20:07;6.00;80.60
12604;DHT22;6367;52.508;13.284;2023-03-01T00:22:36;6.00;80.60
12604;DHT22;6367;52.508;13.284;2023-03-01T00:25:03;5.90;80.60
12604;DHT22;6367;52.508;13.284;2023-03-01T00:27:29;5.90;80.70
12604;DHT22;6367;52.508;13.284;2023-03-01T00:29:55;6.60;81.20
12604;DHT22;6367;52.508;13.284;2023-03-01T00:32:20;5.90;80.90
12604;DHT22;6367;52.508;13.284;2023-03-01T00:34:46;5.80;80.80
12604;DHT22;6367;52.508;13.284;2023-03-01T00:37:21;5.70;80.90
12604;DHT22;6367;52.508;13.284;2023-03-01T00:39:47;5.80;81.10
12604;DHT22;6367;52.508;13.284;2023-03-01T00:42:13;5.80;81.20
12604;DHT22;6367;52.508;13.284;2023-03-01T00:44:38;6.30;81.60
12604;DHT22;6367;52.508;13.284;2023-03-01T00:47:04;5.80;81.20
12604;DHT22;6367;52.508;13.284;2023-03-01T00:49:32;5.70;81.60
12604;DHT22;6367;52.508;13.284;2023-03-01T00:51:58;5.60;82.00
12604;DHT22;6367;52.508;13.284;2023-03-01T00:54:23;5.50;82.10
12604;DHT22;6367;52.508;13.284;2023-03-01T00:56:49;5.50;82.30
12604;DHT22;6367;52.508;13.284;2023-03-01T00:59:14;5.40;82.20
12604;DHT22;6367;52.508;13.284;2023-03-01T01:01:40;5.40;82.30
12604;DHT22;6367;52.508;13.284;2023-03-01T01:04:12;5.40;82.40
12604;DHT22;6367;52.508;13.284;2023-03-01T01:06:40;5.40;82.40
12604;DHT22;6367;52.508;13.284;2023-03-01T01:09:09;5.40;83.00
12604;DHT22;6367;52.508;13.284;2023-03-01T01:11:47;5.40;82.20
12604;DHT22;6367;52.508;13.284;2023-03-01T01:14:13;5.40;82.10
12604;DHT22;6367;52.508;13.284;2023-03-01T01:16:39;5.40;82.10
12604;DHT22;6367;52.508;13.284;2023-03-01T01:19:05;5.50;82.30
12604;DHT22;6367;52.508;13.284;2023-03-01T01:21:31;5.40;82.20
12604;DHT22;6367;52.508;13.284;2023-03-01T01:23:57;5.40;82.20
12604;DHT22;6367;52.508;13.284;2023-03-01T01:26:28;5.30;82.10
12604;DHT22;6367;52.508;13.284;2023-03-01T01:28:54;5.40;82.30
12604;DHT22;6367;52.508;13.284;2023-03-01T01:31:20;5.40;82.10
12604;DHT22;6367;52.508;13.284;2023-03-01T01:33:49;5.40;82.30
12604;DHT22;6367;52.508;13.284;2023-03-01T01:36:15;5.30;82.30
12604;DHT22;6367;52.508;13.284;2023-03-01T01:38:41;5.30;82.40
12604;DHT22;6367;52.508;13.284;2023-03-01T01:41:08;5.30;82.60
12604;DHT22;6367;52.508;13.284;2023-03-01T01:43:48;5.30;82.50
12604;DHT22;6367;52.508;13.284;2023-03-01T01:48:50;5.20;82.40
12604;DHT22;6367;52.508;13.284;2023-03-01T01:51:25;5.30;82.50
12604;DHT22;6367;52.508;13.284;2023-03-01T01:53:57;5.50;82.50
12604;DHT22;6367;52.508;13.284;2023-03-01T01:56:24;5.80;82.30
12604;DHT22;6367;52.508;13.284;2023-03-01T01:58:52;5.40;82.40
12604;DHT22;6367;52.508;13.284;2023-03-01T02:01:19;5.30;82.00
12604;DHT22;6367;52.508;13.284;2023-03-01T02:03:45;5.70;82.70
12604;DHT22;6367;52.508;13.284;2023-03-01T02:09:00;5.30;82.40
12604;DHT22;6367;52.508;13.284;2023-03-01T02:11:29;5.50;82.80
12604;DHT22;6367;52.508;13.284;2023-03-01T02:13:55;5.40;83.20
12604;DHT22;6367;52.508;13.284;2023-03-01T02:16:21;5.20;83.20
12604;DHT22;6367;52.508;13.284;2023-03-01T02:18:47;5.20;82.70
12604;DHT22;6367;52.508;13.284;2023-03-01T02:24:19;5.00;83.40
12604;DHT22;6367;52.508;13.284;2023-03-01T02:26:54;4.90;83.40
12604;DHT22;6367;52.508;13.284;2023-03-01T02:29:22;4.80;83.60
12604;DHT22;6367;52.508;13.284;2023-03-01T02:31:49;4.90;83.80
12604;DHT22;6367;52.508;13.284;2023-03-01T02:34:19;5.20;83.90
12604;DHT22;6367;52.508;13.284;2023-03-01T02:36:46;5.00;83.70
12604;DHT22;6367;52.508;13.284;2023-03-01T02:39:15;5.10;83.70
12604;DHT22;6367;52.508;13.284;2023-03-01T02:41:48;5.10;83.60
12604;DHT22;6367;52.508;13.284;2023-03-01T02:44:15;5.10;83.80
12604;DHT22;6367;52.508;13.284;2023-03-01T02:46:51;5.00;84.00
12604;DHT22;6367;52.508;13.284;2023-03-01T02:54:44;5.00;84.30
12604;DHT22;6367;52.508;13.284;2023-03-01T02:57:12;5.00;85.00
12604;DHT22;6367;52.508;13.284;2023-03-01T02:59:38;5.10;84.50
12604;DHT22;6367;52.508;13.284;2023-03-01T03:02:30;5.10;84.60
12604;DHT22;6367;52.508;13.284;2023-03-01T03:07:32;5.30;84.20
12604;DHT22;6367;52.508;13.284;2023-03-01T03:09:59;5.20;84.20
12604;DHT22;6367;52.508;13.284;2023-03-01T03:12:24;5.20;84.10
12604;DHT22;6367;52.508;13.284;2023-03-01T03:14:50;5.60;84.40
12604;DHT22;6367;52.508;13.284;2023-03-01T03:17:16;5.20;84.10
12604;DHT22;6367;52.508;13.284;2023-03-01T03:19:41;5.20;83.90
12604;DHT22;6367;52.508;13.284;2023-03-01T03:22:12;5.30;83.90
12604;DHT22;6367;52.508;13.284;2023-03-01T03:24:37;5.30;83.80
12604;DHT22;6367;52.508;13.284;2023-03-01T03:27:04;5.20;83.80
12604;DHT22;6367;52.508;13.284;2023-03-01T03:29:30;5.10;84.00
12604;DHT22;6367;52.508;13.284;2023-03-01T03:31:56;5.10;84.10
12604;DHT22;6367;52.508;13.284;2023-03-01T03:34:22;5.20;84.20
12604;DHT22;6367;52.508;13.284;2023-03-01T03:36:55;5.10;84.10
12604;DHT22;6367;52.508;13.284;2023-03-01T03:39:26;5.00;84.30
12604;DHT22;6367;52.508;13.284;2023-03-01T03:41:53;4.90;84.40
12604;DHT22;6367;52.508;13.284;2023-03-01T03:44:19;4.90;84.40
12604;DHT22;6367;52.508;13.284;2023-03-01T03:46:45;5.10;84.20
12604;DHT22;6367;52.508;13.284;2023-03-01T03:49:10;5.10;84.10
12604;DHT22;6367;52.508;13.284;2023-03-01T03:51:36;5.00;84.00
12604;DHT22;6367;52.508;13.284;2023-03-01T03:54:02;4.80;84.30
12604;DHT22;6367;52.508;13.284;2023-03-01T03:56:28;4.90;84.40
12604;DHT22;6367;52.508;13.284;2023-03-01T03:58:53;5.00;84.30
12604;DHT22;6367;52.508;13.284;2023-03-01T04:01:19;4.80;84.40
12604;DHT22;6367;52.508;13.284;2023-03-01T04:03:45;4.70;85.00
12604;DHT22;6367;52.508;13.284;2023-03-01T04:06:13;5.20;85.30
12604;DHT22;6367;52.508;13.284;2023-03-01T04:08:39;5.00;83.90
12604;DHT22;6367;52.508;13.284;2023-03-01T04:11:05;4.60;83.90
12604;DHT22;6367;52.508;13.284;2023-03-01T04:13:51;4.60;84.30
12604;DHT22;6367;52.508;13.284;2023-03-01T04:16:17;4.40;84.00
12604;DHT22;6367;52.508;13.284;2023-03-01T04:18:44;4.80;84.70
12604;DHT22;6367;52.508;13.284;2023-03-01T04:21:13;4.50;84.70
12604;DHT22;6367;52.508;13.284;2023-03-01T04:23:39;4.40;84.70
12604;DHT22;6367;52.508;13.284;2023-03-01T04:26:06;5.10;85.80
12604;DHT22;6367;52.508;13.284;2023-03-01T04:28:34;4.30;85.20
12604;DHT22;6367;52.508;13.284;2023-03-01T04:31:07;4.30;85.60
12604;DHT22;6367;52.508;13.284;2023-03-01T04:33:43;4.30;85.60
12604;DHT22;6367;52.508;13.284;2023-03-01T04:36:12;4.90;86.20
12604;DHT22;6367;52.508;13.284;2023-03-01T04:38:39;4.30;85.70
12604;DHT22;6367;52.508;13.284;2023-03-01T04:41:06;4.20;85.70
12604;DHT22;6367;52.508;13.284;2023-03-01T04:43:32;4.90;86.10
12604;DHT22;6367;52.508;13.284;2023-03-01T04:46:04;4.30;85.40
12604;DHT22;6367;52.508;13.284;2023-03-01T04:48:31;4.30;85.50
12604;DHT22;6367;52.508;13.284;2023-03-01T04:50:59;4.40;85.80
12604;DHT22;6367;52.508;13.284;2023-03-01T04:53:25;4.40;85.90
12604;DHT22;6367;52.508;13.284;2023-03-01T04:55:51;4.90;86.30
12604;DHT22;6367;52.508;13.284;2023-03-01T04:58:16;4.30;86.20
12604;DHT22;6367;52.508;13.284;2023-03-01T05:00:42;4.30;86.50
12604;DHT22;6367;52.508;13.284;2023-03-01T05:03:08;4.50;86.40
12604;DHT22;6367;52.508;13.284;2023-03-01T05:05:37;4.40;86.40
12604;DHT22;6367;52.508;13.284;2023-03-01T05:08:06;4.40;86.40
12604;DHT22;6367;52.508;13.284;2023-03-01T05:10:34;4.30;86.40
12604;DHT22;6367;52.508;13.284;2023-03-01T05:13:02;4.70;86.90
12604;DHT22;6367;52.508;13.284;2023-03-01T05:15:29;4.40;86.70
12604;DHT22;6367;52.508;13.284;2023-03-01T05:17:57;4.30;86.70
12604;DHT22;6367;52.508;13.284;2023-03-01T05:20:28;4.40;86.60
12604;DHT22;6367;52.508;13.284;2023-03-01T05:22:59;4.50;86.40
12604;DHT22;6367;52.508;13.284;2023-03-01T05:25:26;4.40;86.40
12604;DHT22;6367;52.508;13.284;2023-03-01T05:27:51;4.40;86.30
12604;DHT22;6367;52.508;13.284;2023-03-01T05:30:18;4.70;86.50
12604;DHT22;6367;52.508;13.284;2023-03-01T05:32:47;4.30;86.20
12604;DHT22;6367;52.508;13.284;2023-03-01T05:35:15;4.40;86.40
12604;DHT22;6367;52.508;13.284;2023-03-01T05:37:46;4.40;86.10
12604;DHT22;6367;52.508;13.284;2023-03-01T05:40:21;4.60;86.40
12604;DHT22;6367;52.508;13.284;2023-03-01T05:42:50;4.50;86.00
12604;DHT22;6367;52.508;13.284;2023-03-01T05:45:21;4.50;85.60
12604;DHT22;6367;52.508;13.284;2023-03-01T05:47:48;4.50;85.90
12604;DHT22;6367;52.508;13.284;2023-03-01T05:50:26;4.50;86.20
12604;DHT22;6367;52.508;13.284;2023-03-01T05:52:58;4.50;86.20
12604;DHT22;6367;52.508;13.284;2023-03-01T05:55:24;4.40;86.40
12604;DHT22;6367;52.508;13.284;2023-03-01T05:57:49;4.60;86.50
12604;DHT22;6367;52.508;13.284;2023-03-01T06:00:19;4.40;86.50
12604;DHT22;6367;52.508;13.284;2023-03-01T06:02:47;4.40;86.80
12604;DHT22;6367;52.508;13.284;2023-03-01T06:05:13;4.40;86.80
12604;DHT22;6367;52.508;13.284;2023-03-01T06:07:39;4.30;86.90
12604;DHT22;6367;52.508;13.284;2023-03-01T06:10:06;4.30;87.20
12604;DHT22;6367;52.508;13.284;2023-03-01T06:12:34;4.20;87.30
12604;DHT22;6367;52.508;13.284;2023-03-01T06:15:00;4.50;88.10
12604;DHT22;6367;52.508;13.284;2023-03-01T06:17:26;4.30;88.00
12604;DHT22;6367;52.508;13.284;2023-03-01T06:19:54;4.20;86.80
12604;DHT22;6367;52.508;13.284;2023-03-01T06:22:20;4.20;87.20
12604;DHT22;6367;52.508;13.284;2023-03-01T06:24:45;4.00;87.40
12604;DHT22;6367;52.508;13.284;2023-03-01T06:27:11;4.00;88.00
12604;DHT22;6367;52.508;13.284;2023-03-01T06:29:37;4.00;87.90
12604;DHT22;6367;52.508;13.284;2023-03-01T06:32:03;3.90;87.40
12604;DHT22;6367;52.508;13.284;2023-03-01T06:34:29;3.60;87.50
12604;DHT22;6367;52.508;13.284;2023-03-01T06:36:54;3.70;88.20
12604;DHT22;6367;52.508;13.284;2023-03-01T06:39:20;3.70;88.50
12604;DHT22;6367;52.508;13.284;2023-03-01T06:41:46;3.80;88.00
12604;DHT22;6367;52.508;13.284;2023-03-01T06:44:11;3.90;87.60
12604;DHT22;6367;52.508;13.284;2023-03-01T06:46:38;3.90;88.10
12604;DHT22;6367;52.508;13.284;2023-03-01T06:49:04;4.10;88.60
12604;DHT22;6367;52.508;13.284;2023-03-01T06:51:35;4.10;88.80
12604;DHT22;6367;52.508;13.284;2023-03-01T06:54:00;4.10;89.00
12604;DHT22;6367;52.508;13.284;2023-03-01T06:56:26;4.80;89.80
12604;DHT22;6367;52.508;13.284;2023-03-01T06:58:52;4.30;89.50
12604;DHT22;6367;52.508;13.284;2023-03-01T07:01:17;4.90;89.10
12604;DHT22;6367;52.508;13.284;2023-03-01T07:03:43;4.30;89.10
12604;DHT22;6367;52.508;13.284;2023-03-01T07:06:10;4.40;89.30
12604;DHT22;6367;52.508;13.284;2023-03-01T07:08:35;4.50;89.10
12604;DHT22;6367;52.508;13.284;2023-03-01T07:11:01;4.50;89.00
12604;DHT22;6367;52.508;13.284;2023-03-01T07:13:28;4.50;89.10
12604;DHT22;6367;52.508;13.284;2023-03-01T07:15:54;4.80;89.70
12604;DHT22;6367;52.508;13.284;2023-03-01T07:18:20;4.70;89.60
12604;DHT22;6367;52.508;13.284;2023-03-01T07:20:45;4.80;89.50
12604;DHT22;6367;52.508;13.284;2023-03-01T07:23:11;4.90;89.30
12604;DHT22;6367;52.508;13.284;2023-03-01T07:25:37;5.10;89.10
12604;DHT22;6367;52.508;13.284;2023-03-01T07:28:02;5.30;88.30
12604;DHT22;6367;52.508;13.284;2023-03-01T07:30:28;5.30;87.90
12604;DHT22;6367;52.508;13.284;2023-03-01T07:32:55;5.30;88.20
12604;DHT22;6367;52.508;13.284;2023-03-01T07:35:22;5.30;89.10
12604;DHT22;6367;52.508;13.284;2023-03-01T07:37:48;5.60;90.40
12604;DHT22;6367;52.508;13.284;2023-03-01T07:40:14;5.90;87.20
12604;DHT22;6367;52.508;13.284;2023-03-01T07:42:39;6.00;87.00
12604;DHT22;6367;52.508;13.284;2023-03-01T07:45:06;6.20;85.80
12604;DHT22;6367;52.508;13.284;2023-03-01T07:47:32;6.40;84.90
12604;DHT22;6367;52.508;13.284;2023-03-01T07:49:58;6.60;83.90
12604;DHT22;6367;52.508;13.284;2023-03-01T07:52:24;6.70;83.70
12604;DHT22;6367;52.508;13.284;2023-03-01T07:54:49;6.60;83.50
12604;DHT22;6367;52.508;13.284;2023-03-01T07:57:15;6.50;84.10
12604;DHT22;6367;52.508;13.284;2023-03-01T07:59:41;6.50;84.30
12604;DHT22;6367;52.508;13.284;2023-03-01T08:02:07;6.30;84.60
12604;DHT22;6367;52.508;13.284;2023-03-01T08:04:33;6.20;85.20
12604;DHT22;6367;52.508;13.284;2023-03-01T08:06:59;6.20;84.90
12604;DHT22;6367;52.508;13.284;2023-03-01T08:09:25;6.20;84.50
12604;DHT22;6367;52.508;13.284;2023-03-01T08:11:50;6.30;84.70
12604;DHT22;6367;52.508;13.284;2023-03-01T08:14:16;6.30;84.50
12604;DHT22;6367;52.508;13.284;2023-03-01T08:16:42;6.20;84.60
12604;DHT22;6367;52.508;13.284;2023-03-01T08:19:10;6.30;85.10
12604;DHT22;6367;52.508;13.284;2023-03-01T08:21:36;6.30;84.80
12604;DHT22;6367;52.508;13.284;2023-03-01T08:24:06;6.50;85.00
12604;DHT22;6367;52.508;13.284;2023-03-01T08:26:32;6.50;83.30
12604;DHT22;6367;52.508;13.284;2023-03-01T08:29:00;6.60;83.80
12604;DHT22;6367;52.508;13.284;2023-03-01T08:31:34;6.80;83.80
12604;DHT22;6367;52.508;13.284;2023-03-01T08:34:02;7.10;83.00
12604;DHT22;6367;52.508;13.284;2023-03-01T08:36:38;7.20;81.80
12604;DHT22;6367;52.508;13.284;2023-03-01T08:39:05;6.60;79.60
12604;DHT22;6367;52.508;13.284;2023-03-01T08:41:32;7.40;80.20
12604;DHT22;6367;52.508;13.284;2023-03-01T08:43:58;7.60;79.80
12604;DHT22;6367;52.508;13.284;2023-03-01T08:46:35;7.70;79.00
12604;DHT22;6367;52.508;13.284;2023-03-01T08:49:07;7.80;78.60
12604;DHT22;6367;52.508;13.284;2023-03-01T08:51:35;7.80;78.30
12604;DHT22;6367;52.508;13.284;2023-03-01T08:54:07;7.90;78.90
12604;DHT22;6367;52.508;13.284;2023-03-01T08:56:35;8.10;78.10
12604;DHT22;6367;52.508;13.284;2023-03-01T08:59:01;8.50;77.60
12604;DHT22;6367;52.508;13.284;2023-03-01T09:01:26;8.50;77.20
12604;DHT22;6367;52.508;13.284;2023-03-01T09:03:52;8.80;76.50
12604;DHT22;6367;52.508;13.284;2023-03-01T09:06:21;8.80;76.10
12604;DHT22;6367;52.508;13.284;2023-03-01T09:08:48;8.30;74.80
12604;DHT22;6367;52.508;13.284;2023-03-01T09:11:18;9.70;76.10
12604;DHT22;6367;52.508;13.284;2023-03-01T09:13:46;9.30;74.00
12604;DHT22;6367;52.508;13.284;2023-03-01T09:16:13;9.40;74.60
12604;DHT22;6367;52.508;13.284;2023-03-01T09:18:39;9.50;74.00
12604;DHT22;6367;52.508;13.284;2023-03-01T09:21:08;9.70;72.00
12604;DHT22;6367;52.508;13.284;2023-03-01T09:23:35;9.80;72.20
12604;DHT22;6367;52.508;13.284;2023-03-01T09:26:02;10.00;70.60
12604;DHT22;6367;52.508;13.284;2023-03-01T09:28:28;10.10;70.80
12604;DHT22;6367;52.508;13.284;2023-03-01T09:30:58;10.30;71.20
12604;DHT22;6367;52.508;13.284;2023-03-01T09:33:24;10.40;70.00
12604;DHT22;6367;52.508;13.284;2023-03-01T09:35:59;10.50;69.80
12604;DHT22;6367;52.508;13.284;2023-03-01T09:38:25;10.30;68.90
12604;DHT22;6367;52.508;13.284;2023-03-01T09:40:51;10.70;69.10
12604;DHT22;6367;52.508;13.284;2023-03-01T09:43:44;11.10;69.70
12604;DHT22;6367;52.508;13.284;2023-03-01T09:46:13;10.90;69.40
12604;DHT22;6367;52.508;13.284;2023-03-01T09:48:46;11.00;69.10
12604;DHT22;6367;52.508;13.284;2023-03-01T09:51:30;11.00;67.80
12604;DHT22;6367;52.508;13.284;2023-03-01T09:53:57;11.10;67.30
12604;DHT22;6367;52.508;13.284;2023-03-01T09:59:04;11.20;67.60
12604;DHT22;6367;52.508;13.284;2023-03-01T10:09:49;11.60;65.60
12604;DHT22;6367;52.508;13.284;2023-03-01T10:12:17;11.50;66.20
12604;DHT22;6367;52.508;13.284;2023-03-01T10:17:36;11.50;66.30
12604;DHT22;6367;52.508;13.284;2023-03-01T10:20:18;11.50;67.80
12604;DHT22;6367;52.508;13.284;2023-03-01T10:22:44;11.40;68.30
12604;DHT22;6367;52.508;13.284;2023-03-01T10:25:20;11.50;67.20
12604;DHT22;6367;52.508;13.284;2023-03-01T10:27:54;11.50;65.70
12604;DHT22;6367;52.508;13.284;2023-03-01T10:30:40;11.50;65.80
12604;DHT22;6367;52.508;13.284;2023-03-01T10:33:25;11.60;65.40
12604;DHT22;6367;52.508;13.284;2023-03-01T10:35:52;11.60;65.10
12604;DHT22;6367;52.508;13.284;2023-03-01T10:38:18;11.60;65.30
12604;DHT22;6367;52.508;13.284;2023-03-01T10:41:00;11.60;65.30
12604;DHT22;6367;52.508;13.284;2023-03-01T10:43:50;11.70;65.20
12604;DHT22;6367;52.508;13.284;2023-03-01T10:49:19;11.90;62.50
12604;DHT22;6367;52.508;13.284;2023-03-01T10:51:50;11.80;62.70
12604;DHT22;6367;52.508;13.284;2023-03-01T10:56:53;11.80;62.20
12604;DHT22;6367;52.508;13.284;2023-03-01T10:59:30;11.90;61.80
12604;DHT22;6367;52.508;13.284;2023-03-01T11:02:26;11.90;61.40
12604;DHT22;6367;52.508;13.284;2023-03-01T11:10:19;12.20;60.80
12604;DHT22;6367;52.508;13.284;2023-03-01T11:12:48;12.20;59.40
12604;DHT22;6367;52.508;13.284;2023-03-01T11:15:28;12.00;59.90
12604;DHT22;6367;52.508;13.284;2023-03-01T11:17:56;12.00;60.10
12604;DHT22;6367;52.508;13.284;2023-03-01T11:20:27;12.30;60.80
12604;DHT22;6367;52.508;13.284;2023-03-01T11:22:58;12.00;59.90
12604;DHT22;6367;52.508;13.284;2023-03-01T11:25:39;12.20;60.70
12604;DHT22;6367;52.508;13.284;2023-03-01T11:28:09;12.30;60.50
12604;DHT22;6367;52.508;13.284;2023-03-01T11:35:44;12.50;59.00
12604;DHT22;6367;52.508;13.284;2023-03-01T11:38:16;12.60;59.10
12604;DHT22;6367;52.508;13.284;2023-03-01T11:41:05;12.70;58.20
12604;DHT22;6367;52.508;13.284;2023-03-01T11:43:37;12.80;58.30
12604;DHT22;6367;52.508;13.284;2023-03-01T11:57:49;13.30;55.80
12604;DHT22;6367;52.508;13.284;2023-03-01T12:03:30;13.30;56.40
12604;DHT22;6367;52.508;13.284;2023-03-01T12:05:54;13.40;57.10
12604;DHT22;6367;52.508;13.284;2023-03-01T12:08:40;13.30;56.80
12604;DHT22;6367;52.508;13.284;2023-03-01T12:12:19;13.40;56.20
12604;DHT22;6367;52.508;13.284;2023-03-01T12:34:33;13.80;54.00
12604;DHT22;6367;52.508;13.284;2023-03-01T12:37:29;13.80;54.20
12604;DHT22;6367;52.508;13.284;2023-03-01T12:40:11;13.70;54.60
12604;DHT22;6367;52.508;13.284;2023-03-01T12:48:55;13.80;54.80
12604;DHT22;6367;52.508;13.284;2023-03-01T12:51:28;13.90;54.70
12604;DHT22;6367;52.508;13.284;2023-03-01T12:53:57;13.90;54.20
12604;DHT22;6367;52.508;13.284;2023-03-01T12:56:27;13.90;53.90
12604;DHT22;6367;52.508;13.284;2023-03-01T13:17:49;13.50;54.10
12604;DHT22;6367;52.508;13.284;2023-03-01T13:20:17;13.50;54.30
12604;DHT22;6367;52.508;13.284;2023-03-01T13:22:45;13.50;54.40
12604;DHT22;6367;52.508;13.284;2023-03-01T13:25:18;13.40;54.20
12604;DHT22;6367;52.508;13.284;2023-03-01T13:27:45;13.50;54.10
12604;DHT22;6367;52.508;13.284;2023-03-01T13:30:46;13.50;53.60
12604;DHT22;6367;52.508;13.284;2023-03-01T13:36:00;13.20;50.20
12604;DHT22;6367;52.508;13.284;2023-03-01T13:49:49;12.30;50.50
12604;DHT22;6367;52.508;13.284;2023-03-01T13:54:58;12.60;49.80
12604;DHT22;6367;52.508;13.284;2023-03-01T13:57:30;12.10;49.60
12604;DHT22;6367;52.508;13.284;2023-03-01T13:59:58;12.00;50.00
12604;DHT22;6367;52.508;13.284;2023-03-01T14:02:23;12.00;50.50
12604;DHT22;6367;52.508;13.284;2023-03-01T14:05:00;12.00;50.80
12604;DHT22;6367;52.508;13.284;2023-03-01T14:07:28;12.00;50.80
12604;DHT22;6367;52.508;13.284;2023-03-01T14:09:58;12.00;51.20
12604;DHT22;6367;52.508;13.284;2023-03-01T14:15:27;11.90;51.60
12604;DHT22;6367;52.508;13.284;2023-03-01T14:20:44;11.90;51.40
12604;DHT22;6367;52.508;13.284;2023-03-01T14:23:20;11.90;51.40
12604;DHT22;6367;52.508;13.284;2023-03-01T14:25:55;11.20;51.30
12604;DHT22;6367;52.508;13.284;2023-03-01T14:28:25;12.00;51.70
12604;DHT22;6367;52.508;13.284;2023-03-01T14:30:56;11.50;51.10
12604;DHT22;6367;52.508;13.284;2023-03-01T14:38:28;11.90;52.40
12604;DHT22;6367;52.508;13.284;2023-03-01T14:40:58;11.90;52.60
12604;DHT22;6367;52.508;13.284;2023-03-01T14:43:24;11.80;53.10
12604;DHT22;6367;52.508;13.284;2023-03-01T14:45:53;11.80;53.60
12604;DHT22;6367;52.508;13.284;2023-03-01T14:48:19;11.70;53.80
12604;DHT22;6367;52.508;13.284;2023-03-01T14:50:45;11.70;54.50
12604;DHT22;6367;52.508;13.284;2023-03-01T14:53:24;11.80;54.80
12604;DHT22;6367;52.508;13.284;2023-03-01T14:55:56;11.70;55.20
12604;DHT22;6367;52.508;13.284;2023-03-01T14:58:26;11.60;55.20
12604;DHT22;6367;52.508;13.284;2023-03-01T15:00:58;11.70;55.50
12604;DHT22;6367;52.508;13.284;2023-03-01T15:03:48;11.70;55.70
12604;DHT22;6367;52.508;13.284;2023-03-01T15:06:19;11.70;55.20
12604;DHT22;6367;52.508;13.284;2023-03-01T15:08:49;11.70;55.20
12604;DHT22;6367;52.508;13.284;2023-03-01T15:11:23;11.70;55.60
12604;DHT22;6367;52.508;13.284;2023-03-01T15:13:51;11.60;55.70
12604;DHT22;6367;52.508;13.284;2023-03-01T15:18:54;11.70;56.10
12604;DHT22;6367;52.508;13.284;2023-03-01T15:21:27;11.70;55.70
12604;DHT22;6367;52.508;13.284;2023-03-01T15:26:28;11.50;56.50
12604;DHT22;6367;52.508;13.284;2023-03-01T15:28:56;11.50;57.20
12604;DHT22;6367;52.508;13.284;2023-03-01T15:31:34;11.50;57.50
12604;DHT22;6367;52.508;13.284;2023-03-01T15:34:25;11.50;57.90
12604;DHT22;6367;52.508;13.284;2023-03-01T15:36:53;10.80;57.20
12604;DHT22;6367;52.508;13.284;2023-03-01T15:41:58;11.40;58.00
12604;DHT22;6367;52.508;13.284;2023-03-01T15:44:29;11.40;57.90
12604;DHT22;6367;52.508;13.284;2023-03-01T15:46:56;11.60;58.30
12604;DHT22;6367;52.508;13.284;2023-03-01T15:49:40;11.30;58.20
12604;DHT22;6367;52.508;13.284;2023-03-01T15:52:23;11.30;58.70
12604;DHT22;6367;52.508;13.284;2023-03-01T15:54:59;11.40;58.10
12604;DHT22;6367;52.508;13.284;2023-03-01T15:57:25;11.30;58.10
12604;DHT22;6367;52.508;13.284;2023-03-01T15:59:51;11.30;58.20
12604;DHT22;6367;52.508;13.284;2023-03-01T16:02:17;11.30;58.20
12604;DHT22;6367;52.508;13.284;2023-03-01T16:04:43;11.40;57.90
12604;DHT22;6367;52.508;13.284;2023-03-01T16:07:09;11.40;57.50
12604;DHT22;6367;52.508;13.284;2023-03-01T16:09:35;11.30;57.70
12604;DHT22;6367;52.508;13.284;2023-03-01T16:12:01;11.30;58.00
12604;DHT22;6367;52.508;13.284;2023-03-01T16:14:27;11.30;58.20
12604;DHT22;6367;52.508;13.284;2023-03-01T16:16:53;11.20;58.30
12604;DHT22;6367;52.508;13.284;2023-03-01T16:19:19;11.20;58.50
12604;DHT22;6367;52.508;13.284;2023-03-01T16:21:45;11.20;58.60
12604;DHT22;6367;52.508;13.284;2023-03-01T16:24:13;11.30;58.50
12604;DHT22;6367;52.508;13.284;2023-03-01T16:26:39;11.20;58.60
12604;DHT22;6367;52.508;13.284;2023-03-01T16:29:05;11.10;58.70
12604;DHT22;6367;52.508;13.284;2023-03-01T16:31:31;11.10;58.80
12604;DHT22;6367;52.508;13.284;2023-03-01T16:33:58;11.10;59.00
12604;DHT22;6367;52.508;13.284;2023-03-01T16:36:26;11.10;59.10
12604;DHT22;6367;52.508;13.284;2023-03-01T16:38:54;11.10;59.20
12604;DHT22;6367;52.508;13.284;2023-03-01T16:41:21;11.10;59.30
12604;DHT22;6367;52.508;13.284;2023-03-01T16:43:48;11.10;59.40
12604;DHT22;6367;52.508;13.284;2023-03-01T16:46:17;11.10;59.60
12604;DHT22;6367;52.508;13.284;2023-03-01T16:48:43;11.00;59.60
12604;DHT22;6367;52.508;13.284;2023-03-01T16:51:09;11.00;59.70
12604;DHT22;6367;52.508;13.284;2023-03-01T16:53:36;11.00;60.80
12604;DHT22;6367;52.508;13.284;2023-03-01T16:56:04;11.00;60.50
12604;DHT22;6367;52.508;13.284;2023-03-01T16:58:31;11.00;60.60
12604;DHT22;6367;52.508;13.284;2023-03-01T17:01:24;10.90;60.70
12604;DHT22;6367;52.508;13.284;2023-03-01T17:03:51;10.90;60.70
12604;DHT22;6367;52.508;13.284;2023-03-01T17:06:19;10.90;60.90
12604;DHT22;6367;52.508;13.284;2023-03-01T17:08:46;10.90;61.10
12604;DHT22;6367;52.508;13.284;2023-03-01T17:11:17;10.90;61.20
12604;DHT22;6367;52.508;13.284;2023-03-01T17:13:43;10.90;62.30
12604;DHT22;6367;52.508;13.284;2023-03-01T17:16:12;10.80;61.80
12604;DHT22;6367;52.508;13.284;2023-03-01T17:18:38;10.80;62.20
12604;DHT22;6367;52.508;13.284;2023-03-01T17:21:05;10.80;62.50
12604;DHT22;6367;52.508;13.284;2023-03-01T17:23:32;10.80;62.80
12604;DHT22;6367;52.508;13.284;2023-03-01T17:25:58;11.00;63.40
12604;DHT22;6367;52.508;13.284;2023-03-01T17:28:27;10.80;63.50
12604;DHT22;6367;52.508;13.284;2023-03-01T17:30:53;10.70;63.80
12604;DHT22;6367;52.508;13.284;2023-03-01T17:33:20;11.10;64.40
12604;DHT22;6367;52.508;13.284;2023-03-01T17:35:46;10.70;64.30
12604;DHT22;6367;52.508;13.284;2023-03-01T17:38:13;10.60;64.50
12604;DHT22;6367;52.508;13.284;2023-03-01T17:40:43;10.60;64.90
12604;DHT22;6367;52.508;13.284;2023-03-01T17:43:13;10.60;65.20
12604;DHT22;6367;52.508;13.284;2023-03-01T17:45:40;10.60;65.50
12604;DHT22;6367;52.508;13.284;2023-03-01T17:48:09;10.60;65.90
12604;DHT22;6367;52.508;13.284;2023-03-01T17:50:37;10.50;66.10
12604;DHT22;6367;52.508;13.284;2023-03-01T17:53:03;10.50;66.40
12604;DHT22;6367;52.508;13.284;2023-03-01T17:55:37;10.50;66.60
12604;DHT22;6367;52.508;13.284;2023-03-01T17:58:04;10.50;66.80
12604;DHT22;6367;52.508;13.284;2023-03-01T18:00:30;10.50;67.00
12604;DHT22;6367;52.508;13.284;2023-03-01T18:02:56;10.60;67.20
12604;DHT22;6367;52.508;13.284;2023-03-01T18:05:22;10.50;67.30
12604;DHT22;6367;52.508;13.284;2023-03-01T18:07:49;10.50;67.40
12604;DHT22;6367;52.508;13.284;2023-03-01T18:10:15;10.40;67.50
12604;DHT22;6367;52.508;13.284;2023-03-01T18:12:41;10.40;67.70